createdAt,value
2019-03-12T00:00:36.462Z,10.67
2019-03-12T00:05:41.811Z,10.00
2019-03-12T00:10:47.025Z,11.15
2019-03-12T00:15:52.181Z,8.80
2019-03-12T00:20:57.273Z,9.85
2019-03-12T00:26:02.417Z,11.40
2019-03-12T00:31:07.444Z,8.33
2019-03-12T00:36:12.590Z,10.35
2019-03-12T00:41:20.097Z,9.33
2019-03-12T00:46:27.085Z,14.07
2019-03-12T00:51:31.676Z,14.33
2019-03-12T00:56:36.786Z,12.60
2019-03-12T01:01:41.940Z,11.87
2019-03-12T01:06:47.037Z,12.33
2019-03-12T01:11:52.174Z,9.20
2019-03-12T01:16:57.210Z,7.17
2019-03-12T01:22:02.335Z,8.87
2019-03-12T01:27:07.477Z,6.97
2019-03-12T01:32:12.589Z,6.15
2019-03-12T01:37:17.713Z,7.10
2019-03-12T01:42:25.953Z,5.57
2019-03-12T01:47:31.154Z,6.20
2019-03-12T01:52:36.403Z,4.37
2019-03-12T01:57:41.625Z,6.10
2019-03-12T02:02:46.883Z,4.03
2019-03-12T02:07:51.916Z,4.87
2019-03-12T02:12:56.961Z,7.07
2019-03-12T02:18:02.048Z,4.67
2019-03-12T02:23:07.237Z,6.33
2019-03-12T02:28:12.386Z,3.03
2019-03-12T02:33:17.651Z,4.25
2019-03-12T02:38:22.753Z,3.47
2019-03-12T02:43:28.122Z,4.13
2019-03-12T02:48:33.162Z,3.80
2019-03-12T02:53:38.316Z,3.27
2019-03-12T02:58:43.354Z,3.53
2019-03-12T03:03:48.392Z,2.67
2019-03-12T03:08:53.501Z,3.33
2019-03-12T03:13:59.739Z,3.43
2019-03-12T03:19:06.084Z,3.50
2019-03-12T03:24:11.248Z,4.73
2019-03-12T03:29:16.281Z,4.77
2019-03-12T03:34:27.223Z,4.28
2019-03-12T03:39:28.287Z,4.00
2019-03-12T03:44:33.725Z,3.30
2019-03-12T03:49:39.223Z,2.57
2019-03-12T03:54:44.300Z,2.33
2019-03-12T03:59:49.510Z,4.70
2019-03-12T04:04:54.557Z,3.43
2019-03-12T04:09:59.684Z,2.37
2019-03-12T04:15:06.562Z,4.80
2019-03-12T04:20:16.994Z,4.77
2019-03-12T04:25:22.298Z,4.00
2019-03-12T04:30:27.553Z,4.33
2019-03-12T04:35:35.604Z,3.13
2019-03-12T04:40:40.638Z,4.40
2019-03-12T04:45:45.954Z,5.53
2019-03-12T04:50:51.162Z,3.13
2019-03-12T04:55:56.301Z,2.67
2019-03-12T05:01:01.544Z,3.23
2019-03-12T05:06:06.659Z,5.30
2019-03-12T05:11:11.909Z,3.37
2019-03-12T05:16:17.008Z,4.10
2019-03-12T05:21:22.057Z,3.75
2019-03-12T05:26:27.107Z,5.33
2019-03-12T05:31:32.190Z,4.53
2019-03-12T05:36:37.281Z,4.00
2019-03-12T05:41:42.349Z,3.47
2019-03-12T05:46:47.892Z,5.07
2019-03-12T05:51:53.108Z,10.97
2019-03-12T05:56:58.284Z,5.37
2019-03-12T06:02:03.612Z,6.23
2019-03-12T06:07:08.786Z,5.70
2019-03-12T06:12:13.970Z,8.08
2019-03-12T06:17:18.998Z,3.50
2019-03-12T06:22:24.051Z,4.30
2019-03-12T06:27:29.216Z,4.27
2019-03-12T06:32:35.891Z,6.10
2019-03-12T06:37:45.329Z,7.23
2019-03-12T06:42:57.799Z,3.87
2019-03-12T06:48:10.824Z,4.43
2019-03-12T06:53:23.351Z,3.80
2019-03-12T06:58:31.233Z,3.60
2019-03-12T07:03:56.198Z,4.80
2019-03-12T07:09:05.986Z,6.50
2019-03-12T07:14:22.553Z,4.95
2019-03-12T07:19:40.099Z,6.63
2019-03-12T07:25:01.816Z,7.97
2019-03-12T07:30:17.422Z,7.37
2019-03-12T07:35:29.810Z,8.48
2019-03-12T07:40:42.703Z,8.77
2019-03-12T07:46:07.854Z,12.90
2019-03-12T07:51:31.249Z,12.03
2019-03-12T07:56:38.067Z,3.60
2019-03-12T08:01:44.852Z,7.17
2019-03-12T08:06:54.320Z,6.10
2019-03-12T08:12:01.183Z,8.20
2019-03-12T08:17:09.142Z,3.93
2019-03-12T08:22:22.267Z,7.35
2019-03-12T08:27:31.583Z,4.70
2019-03-12T08:32:50.639Z,14.57
2019-03-12T08:37:57.385Z,6.90
2019-03-12T08:43:13.076Z,4.72
2019-03-12T08:48:31.571Z,5.07
2019-03-12T08:53:41.545Z,7.97
2019-03-12T08:59:06.035Z,6.03
2019-03-12T09:04:12.804Z,6.58
2019-03-12T09:09:37.574Z,6.47
2019-03-12T09:14:47.016Z,4.13
2019-03-12T09:20:05.466Z,4.07
2019-03-12T09:25:12.387Z,4.80
2019-03-12T09:30:39.698Z,2.20
2019-03-12T09:36:03.979Z,2.37
2019-03-12T09:41:10.731Z,5.93
2019-03-12T09:46:20.213Z,7.42
2019-03-12T09:51:33.045Z,4.13
2019-03-12T09:56:48.819Z,6.00
2019-03-12T10:01:59.496Z,7.07
2019-03-12T10:07:12.681Z,4.00
2019-03-12T10:12:22.265Z,5.07
2019-03-12T10:17:37.966Z,4.63
2019-03-12T10:22:44.763Z,6.40
2019-03-12T10:27:51.638Z,4.63
2019-03-12T10:33:16.680Z,14.63
2019-03-12T10:38:59.630Z,6.45
2019-03-12T10:44:06.895Z,2.95
2019-03-12T10:49:12.020Z,5.15
2019-03-12T10:54:17.106Z,6.47
2019-03-12T10:59:22.785Z,3.30
2019-03-12T11:04:27.912Z,12.67
2019-03-12T11:09:33.201Z,6.10
2019-03-12T11:14:38.977Z,3.97
2019-03-12T11:19:44.231Z,6.07
2019-03-12T11:24:49.253Z,4.37
2019-03-12T11:29:54.327Z,3.63
2019-03-12T11:34:59.458Z,8.30
2019-03-12T11:40:07.880Z,4.28
2019-03-12T11:45:16.783Z,5.57
2019-03-12T11:50:23.119Z,8.05
2019-03-12T11:55:28.516Z,4.72
2019-03-12T12:00:35.794Z,4.67
2019-03-12T12:05:40.993Z,4.87
2019-03-12T12:10:46.285Z,59.90
2019-03-12T12:15:51.410Z,11.23
2019-03-12T12:20:56.535Z,31.67
2019-03-12T12:26:01.591Z,6.40
2019-03-12T12:31:06.689Z,38.33
2019-03-12T12:36:11.810Z,10.65
2019-03-12T12:41:16.833Z,10.57
2019-03-12T12:46:21.972Z,10.85
2019-03-12T12:51:27.101Z,12.10
2019-03-12T12:56:32.285Z,10.87
2019-03-12T13:01:37.593Z,6.33
2019-03-12T13:06:42.641Z,6.20
2019-03-12T13:11:47.713Z,10.53
2019-03-12T13:16:52.906Z,9.60
2019-03-12T13:21:57.955Z,14.53
2019-03-12T13:27:03.118Z,9.73
2019-03-12T13:32:13.553Z,8.88
2019-03-12T13:37:15.148Z,8.30
2019-03-12T13:42:20.693Z,14.25
2019-03-12T13:47:28.636Z,8.53
2019-03-12T13:52:32.933Z,10.27
2019-03-12T13:57:38.102Z,7.27
2019-03-12T14:02:43.593Z,12.60
2019-03-12T14:07:49.410Z,23.77
2019-03-12T14:12:55.736Z,12.97
2019-03-12T14:18:01.150Z,7.23
2019-03-12T14:23:06.760Z,10.23
2019-03-12T14:28:11.942Z,8.73
2019-03-12T14:33:17.091Z,7.13
2019-03-12T14:38:22.255Z,8.77
2019-03-12T14:43:27.567Z,9.87
2019-03-12T14:48:44.380Z,10.50
2019-03-12T14:53:55.013Z,12.73
2019-03-12T14:59:00.465Z,10.00
2019-03-12T15:04:06.149Z,10.30
2019-03-12T15:09:14.397Z,9.83
2019-03-12T15:14:21.219Z,15.78
2019-03-12T15:19:26.351Z,11.07
2019-03-12T15:24:31.483Z,8.73
2019-03-12T15:29:37.824Z,9.67
2019-03-12T15:34:43.017Z,10.93
2019-03-12T15:39:48.209Z,16.17
2019-03-12T15:44:53.321Z,14.03
2019-03-12T15:49:58.551Z,21.23
2019-03-12T15:55:05.043Z,13.27
2019-03-12T16:00:12.917Z,15.20
2019-03-12T16:05:18.416Z,40.20
2019-03-12T16:10:23.729Z,18.57
2019-03-12T16:15:29.795Z,35.43
2019-03-12T16:20:34.951Z,25.47
2019-03-12T16:25:40.125Z,22.93
2019-03-12T16:30:45.187Z,42.97
2019-03-12T16:35:50.368Z,25.53
2019-03-12T16:40:55.497Z,37.07
2019-03-12T16:46:00.652Z,35.70
2019-03-12T16:51:05.827Z,27.40
2019-03-12T16:56:11.290Z,30.43
2019-03-12T17:01:16.518Z,26.73
2019-03-12T17:06:22.006Z,36.40
2019-03-12T17:11:27.055Z,30.33
2019-03-12T17:16:32.355Z,40.87
2019-03-12T17:21:37.403Z,49.00
2019-03-12T17:26:42.869Z,107.40
2019-03-12T17:31:47.936Z,39.33
2019-03-12T17:36:53.167Z,34.77
2019-03-12T17:42:00.459Z,29.77
2019-03-12T17:47:05.833Z,18.30
2019-03-12T17:52:11.993Z,56.18
2019-03-12T17:57:17.119Z,49.57
2019-03-12T18:02:22.483Z,25.03
2019-03-12T18:07:29.460Z,36.60
2019-03-12T18:12:34.671Z,39.57
2019-03-12T18:17:39.970Z,34.07
2019-03-12T18:22:45.157Z,32.80
2019-03-12T18:27:50.490Z,30.73
2019-03-12T18:32:55.684Z,41.10
2019-03-12T18:38:00.803Z,35.80
2019-03-12T18:43:06.216Z,46.07
2019-03-12T18:48:11.415Z,56.28
2019-03-12T18:53:16.658Z,58.95
2019-03-12T18:58:21.926Z,65.42
2019-03-12T19:03:27.042Z,48.37
2019-03-12T19:08:32.648Z,38.00
2019-03-12T19:13:39.064Z,42.77
2019-03-12T19:18:44.330Z,51.13
2019-03-12T19:23:49.510Z,90.25
2019-03-12T19:28:54.667Z,38.20
2019-03-12T19:34:01.368Z,36.70
2019-03-12T19:39:07.993Z,28.57
2019-03-12T19:44:14.752Z,29.87
2019-03-12T19:49:20.327Z,50.40
2019-03-12T19:54:25.721Z,46.27
2019-03-12T19:59:30.945Z,55.33
2019-03-12T20:04:46.806Z,44.90
2019-03-12T20:09:45.749Z,44.03
2019-03-12T20:15:21.372Z,44.05
2019-03-12T20:20:55.479Z,40.77
2019-03-12T20:26:22.843Z,41.10
2019-03-12T20:31:45.841Z,48.33
2019-03-12T20:37:03.144Z,53.20
2019-03-12T20:42:37.932Z,45.10
2019-03-12T20:48:07.222Z,42.70
2019-03-12T20:53:24.172Z,45.92
2019-03-12T20:58:44.711Z,48.17
2019-03-12T21:04:15.830Z,38.92
2019-03-12T21:09:41.844Z,54.60
2019-03-12T21:15:15.999Z,47.27
2019-03-12T21:20:47.835Z,45.20
2019-03-12T21:26:17.159Z,45.87
2019-03-12T21:31:22.648Z,44.63
2019-03-12T21:36:30.906Z,43.30
2019-03-12T21:41:34.824Z,39.73
2019-03-12T21:46:40.040Z,33.13
2019-03-12T21:51:45.243Z,37.90
2019-03-12T21:56:50.409Z,35.73
2019-03-12T22:01:55.588Z,33.77
2019-03-12T22:07:01.093Z,37.43
2019-03-12T22:12:06.337Z,32.83
2019-03-12T22:17:11.979Z,36.23
2019-03-12T22:22:29.349Z,35.85
2019-03-12T22:27:34.576Z,37.20
2019-03-12T22:32:39.685Z,39.33
2019-03-12T22:37:44.933Z,40.87
2019-03-12T22:42:50.084Z,41.37
2019-03-12T22:47:55.431Z,40.30
2019-03-12T22:53:00.485Z,41.60
2019-03-12T22:58:05.935Z,40.57
2019-03-12T23:03:29.291Z,42.07
2019-03-12T23:08:52.289Z,40.90
2019-03-12T23:13:59.376Z,38.60
2019-03-12T23:19:05.808Z,43.33
2019-03-12T23:24:11.182Z,40.53
2019-03-12T23:29:16.709Z,38.83
2019-03-12T23:34:22.414Z,42.90
2019-03-12T23:39:27.630Z,45.53
2019-03-12T23:44:32.839Z,50.17
2019-03-12T23:49:38.267Z,40.93
2019-03-12T23:54:43.706Z,45.23
2019-03-12T23:59:48.848Z,42.60
